Aldelta — 3FTO8 — position and weather

sailwx.info

Track history (hours):
 
Tides and Currents Weather Stations Pressure Air Temp Water Temp Dewpoint Dewpoint Depression Visibility Wind Speed Wind Dir Waves Ship Positions

Aldelta

Last reported at 2017-Dec-07 06:06 UTC. Time now 2017-Dec-12 06:45 UTC.
Position N 37°57' E 024°37'.

Length 121 m; draft 6.5 m.

Type: Other ship. MMSI: 356547000.

Date/timePositionNaut miles runAvg speedWind from/ knotsBaromVisibWave heightAir tempDewpointWater temp
2017-Dec-07 06:06N 37°57' E 024°37'2 9.9
2017-Dec-07 05:56N 37°55' E 024°36'4 9.5
2017-Dec-07 05:29N 37°51' E 024°34'510.1
2017-Dec-07 05:00N 37°47' E 024°32'510.8
2017-Dec-07 04:30N 37°42' E 024°30'510.7
2017-Dec-07 04:00N 37°36' E 024°28'510.2
2017-Dec-07 03:30N 37°32' E 024°24'510.3
2017-Dec-07 03:00N 37°29' E 024°20'510.7
2017-Dec-07 02:30N 37°25' E 024°15'510.7
2017-Dec-07 02:00N 37°21' E 024°11'510.7
2017-Dec-07 01:30N 37°17' E 024°06'510.6
2017-Dec-07 01:00N 37°13' E 024°02'510.4
2017-Dec-07 00:30N 37°09' E 023°57'510.3
2017-Dec-07 00:00N 37°05' E 023°53'510.4
2017-Dec-06 23:30N 37°01' E 023°49'510.5
2017-Dec-06 23:00N 36°57' E 023°45'810.5
2017-Dec-06 22:16N 36°52' E 023°38'310.5
2017-Dec-06 22:00N 36°50' E 023°35'  
2017-Dec-01 01:13N 36°00' W 005°12'311.9
2017-Dec-01 01:00N 35°60' W 005°15'612.1
2017-Dec-01 00:30N 35°58' W 005°22'611.9
2017-Dec-01 00:00N 35°57' W 005°29'51710.1
2017-Nov-28 20:46N 30°06' W 013°03'310.8
2017-Nov-28 20:30N 30°04' W 013°05'910.7
2017-Nov-28 19:40N 29°57' W 013°11'210.7
2017-Nov-28 19:30N 29°55' W 013°13'510.8
2017-Nov-28 19:00N 29°51' W 013°16'510.7
2017-Nov-28 18:30N 29°47' W 013°20'510.8
2017-Nov-28 18:00N 29°42' W 013°23'510.7
2017-Nov-28 17:30N 29°38' W 013°27'510.9
2017-Nov-28 17:00N 29°34' W 013°32'510.9
2017-Nov-28 16:30N 29°31' W 013°36'611.2
2017-Nov-28 16:00N 29°27' W 013°41'1111.2
2017-Nov-28 15:00N 29°21' W 013°52'511.0
2017-Nov-28 14:30N 29°18' W 013°57'611.0
2017-Nov-28 13:59N 29°14' W 014°02'511.0
2017-Nov-28 13:30N 29°11' W 014°07'510.8
2017-Nov-28 13:00N 29°08' W 014°12'510.8
2017-Nov-28 12:30N 29°05' W 014°17'510.7
2017-Nov-28 12:00N 29°01' W 014°21'710.7
2017-Nov-28 11:24N 28°56' W 014°27'410.6
2017-Nov-28 11:00N 28°54' W 014°30'510.7
2017-Nov-28 10:30N 28°50' W 014°35'510.7
2017-Nov-28 10:00N 28°46' W 014°39'510.4
2017-Nov-28 09:30N 28°42' W 014°43'510.4
2017-Nov-28 09:00N 28°38' W 014°46'510.2
2017-Nov-28 08:30N 28°34' W 014°50'510.1
2017-Nov-28 08:00N 28°31' W 014°54'510.1
2017-Nov-28 07:30N 28°28' W 014°59'510.2
2017-Nov-28 07:00N 28°24' W 015°04'510.5
2017-Nov-28 06:29N 28°21' W 015°08'510.5
2017-Nov-28 06:00N 28°17' W 015°12'510.8
2017-Nov-28 05:30N 28°13' W 015°16'9 9.3
2017-Nov-28 04:30N 28°07' W 015°24'1 0.9
2017-Nov-28 03:49N 28°07' W 015°25'0 0.0
2017-Nov-28 03:22N 28°07' W 015°25'0 0.0
2017-Nov-28 02:52N 28°07' W 015°25'0 0.1
2017-Nov-28 02:22N 28°07' W 015°25'0 0.1
2017-Nov-28 01:52N 28°07' W 015°25'0 0.0
2017-Nov-28 01:22N 28°07' W 015°25'0 0.1
2017-Nov-28 00:52N 28°07' W 015°25'0 1.1
2017-Nov-28 00:31N 28°07' W 015°24'2 4.4
2017-Nov-28 00:01N 28°08' W 015°22'4 7.2
2017-Nov-27 23:31N 28°09' W 015°18'1 1.0
2017-Nov-27 22:59N 28°09' W 015°18'1 1.0
2017-Nov-27 22:29N 28°09' W 015°18'1 1.2
2017-Nov-27 21:59N 28°08' W 015°18'1 1.2
2017-Nov-27 21:29N 28°08' W 015°18'1 1.2
2017-Nov-27 20:59N 28°07' W 015°17'1 1.2
2017-Nov-27 20:29N 28°08' W 015°17'1 1.3
2017-Nov-27 19:59N 28°08' W 015°16'0 0.7
2017-Nov-27 19:20N 28°08' W 015°17'0 0.9
2017-Nov-27 18:53N 28°08' W 015°17'0 0.9
2017-Nov-27 18:23N 28°08' W 015°18'0 1.0
2017-Nov-27 17:53N 28°08' W 015°18'1 1.1
2017-Nov-27 17:23N 28°07' W 015°18'1 1.4
2017-Nov-27 16:53N 28°07' W 015°19'1 2.1
2017-Nov-27 16:30N 28°06' W 015°18'510.6
2017-Nov-27 16:00N 28°01' W 015°16'510.6
2017-Nov-27 15:30N 27°56' W 015°15'510.7
2017-Nov-27 15:00N 27°51' W 015°14'510.6
2017-Nov-27 14:30N 27°45' W 015°15'610.4
2017-Nov-27 13:59N 27°41' W 015°19'  
Track history (hours):
 
Tides and Currents Weather Stations Pressure Air Temp Water Temp Dewpoint Dewpoint Depression Visibility Wind Speed Wind Dir Waves Ship Positions

Aldelta

Last reported at 2017-Dec-07 06:06 UTC. Time now 2017-Dec-12 06:45 UTC.
Position N 37°57' E 024°37'.

Length 121 m; draft 6.5 m.

Type: Other ship. MMSI: 356547000.

Date/timePositionNaut miles runAvg speedWind from/ knotsBaromVisibWave heightAir tempDewpointWater temp
2017-Dec-07 06:06N 37°57' E 024°37'2 9.9
2017-Dec-07 05:56N 37°55' E 024°36'4 9.5
2017-Dec-07 05:29N 37°51' E 024°34'510.1
2017-Dec-07 05:00N 37°47' E 024°32'510.8
2017-Dec-07 04:30N 37°42' E 024°30'510.7
2017-Dec-07 04:00N 37°36' E 024°28'510.2
2017-Dec-07 03:30N 37°32' E 024°24'510.3
2017-Dec-07 03:00N 37°29' E 024°20'510.7
2017-Dec-07 02:30N 37°25' E 024°15'510.7
2017-Dec-07 02:00N 37°21' E 024°11'510.7
2017-Dec-07 01:30N 37°17' E 024°06'510.6
2017-Dec-07 01:00N 37°13' E 024°02'510.4
2017-Dec-07 00:30N 37°09' E 023°57'510.3
2017-Dec-07 00:00N 37°05' E 023°53'510.4
2017-Dec-06 23:30N 37°01' E 023°49'510.5
2017-Dec-06 23:00N 36°57' E 023°45'810.5
2017-Dec-06 22:16N 36°52' E 023°38'310.5
2017-Dec-06 22:00N 36°50' E 023°35'  
2017-Dec-01 01:13N 36°00' W 005°12'311.9
2017-Dec-01 01:00N 35°60' W 005°15'612.1
2017-Dec-01 00:30N 35°58' W 005°22'611.9
2017-Dec-01 00:00N 35°57' W 005°29'51710.1
2017-Nov-28 20:46N 30°06' W 013°03'310.8
2017-Nov-28 20:30N 30°04' W 013°05'910.7
2017-Nov-28 19:40N 29°57' W 013°11'210.7
2017-Nov-28 19:30N 29°55' W 013°13'510.8
2017-Nov-28 19:00N 29°51' W 013°16'510.7
2017-Nov-28 18:30N 29°47' W 013°20'510.8
2017-Nov-28 18:00N 29°42' W 013°23'510.7
2017-Nov-28 17:30N 29°38' W 013°27'510.9
2017-Nov-28 17:00N 29°34' W 013°32'510.9
2017-Nov-28 16:30N 29°31' W 013°36'611.2
2017-Nov-28 16:00N 29°27' W 013°41'1111.2
2017-Nov-28 15:00N 29°21' W 013°52'511.0
2017-Nov-28 14:30N 29°18' W 013°57'611.0
2017-Nov-28 13:59N 29°14' W 014°02'511.0
2017-Nov-28 13:30N 29°11' W 014°07'510.8
2017-Nov-28 13:00N 29°08' W 014°12'510.8
2017-Nov-28 12:30N 29°05' W 014°17'510.7
2017-Nov-28 12:00N 29°01' W 014°21'710.7
2017-Nov-28 11:24N 28°56' W 014°27'410.6
2017-Nov-28 11:00N 28°54' W 014°30'510.7
2017-Nov-28 10:30N 28°50' W 014°35'510.7
2017-Nov-28 10:00N 28°46' W 014°39'510.4
2017-Nov-28 09:30N 28°42' W 014°43'510.4
2017-Nov-28 09:00N 28°38' W 014°46'510.2
2017-Nov-28 08:30N 28°34' W 014°50'510.1
2017-Nov-28 08:00N 28°31' W 014°54'510.1
2017-Nov-28 07:30N 28°28' W 014°59'510.2
2017-Nov-28 07:00N 28°24' W 015°04'510.5
2017-Nov-28 06:29N 28°21' W 015°08'510.5
2017-Nov-28 06:00N 28°17' W 015°12'510.8
2017-Nov-28 05:30N 28°13' W 015°16'9 9.3
2017-Nov-28 04:30N 28°07' W 015°24'1 0.9
2017-Nov-28 03:49N 28°07' W 015°25'0 0.0
2017-Nov-28 03:22N 28°07' W 015°25'0 0.0
2017-Nov-28 02:52N 28°07' W 015°25'0 0.1
2017-Nov-28 02:22N 28°07' W 015°25'0 0.1
2017-Nov-28 01:52N 28°07' W 015°25'0 0.0
2017-Nov-28 01:22N 28°07' W 015°25'0 0.1
2017-Nov-28 00:52N 28°07' W 015°25'0 1.1
2017-Nov-28 00:31N 28°07' W 015°24'2 4.4
2017-Nov-28 00:01N 28°08' W 015°22'4 7.2
2017-Nov-27 23:31N 28°09' W 015°18'1 1.0
2017-Nov-27 22:59N 28°09' W 015°18'1 1.0
2017-Nov-27 22:29N 28°09' W 015°18'1 1.2
2017-Nov-27 21:59N 28°08' W 015°18'1 1.2
2017-Nov-27 21:29N 28°08' W 015°18'1 1.2
2017-Nov-27 20:59N 28°07' W 015°17'1 1.2
2017-Nov-27 20:29N 28°08' W 015°17'1 1.3
2017-Nov-27 19:59N 28°08' W 015°16'0 0.7
2017-Nov-27 19:20N 28°08' W 015°17'0 0.9
2017-Nov-27 18:53N 28°08' W 015°17'0 0.9
2017-Nov-27 18:23N 28°08' W 015°18'0 1.0
2017-Nov-27 17:53N 28°08' W 015°18'1 1.1
2017-Nov-27 17:23N 28°07' W 015°18'1 1.4
2017-Nov-27 16:53N 28°07' W 015°19'1 2.1
2017-Nov-27 16:30N 28°06' W 015°18'510.6
2017-Nov-27 16:00N 28°01' W 015°16'510.6
2017-Nov-27 15:30N 27°56' W 015°15'510.7
2017-Nov-27 15:00N 27°51' W 015°14'510.6
2017-Nov-27 14:30N 27°45' W 015°15'610.4
2017-Nov-27 13:59N 27°41' W 015°19'  

Dump ship's entire track history